Home > Products > Valid Products > TAF

000
FTUS43 KGRR 141732
TAFAZO
TAF
KAZO 141732Z 1418/1518 14009KT P6SM BKN250
     FM142200 14010G16KT P6SM OVC035
     FM150400 15006KT 3SM -SN OVC015=



000
FTUS43 KGRR 141732
TAFJXN
TAF
KJXN 141732Z 1418/1518 14010KT P6SM BKN250
     FM150100 14010G16KT 6SM -SN OVC040
     FM150500 14010KT 4SM -SN OVC030
     FM150700 14010KT 4SM -SN OVC025
     FM151200 17007KT 5SM -SN OVC012=



000
FTUS43 KGRR 141732
TAFGRR
TAF
KGRR 141732Z 1418/1518 13012G18KT P6SM BKN150
     FM150200 12010G16KT 5SM -SN OVC040
     FM150600 13010KT 4SM -SN OVC015
     FM151600 18007KT P6SM OVC015=



000
FTUS43 KGRR 141732
TAFMKG
TAF
KMKG 141732Z 1418/1518 14014KT P6SM BKN250
     FM142300 13012G18KT 6SM -SN OVC035
     FM150500 14011KT 3SM -SN OVC015
     FM151200 17006KT 4SM -SN OVC015=



000
FTUS43 KGRR 141732
TAFBTL
TAF
KBTL 141732Z 1418/1518 14010KT P6SM BKN250
     FM142300 14010G16KT P6SM OVC035
     FM150400 15010KT 3SM -SN OVC015
     FM150900 16006KT 5SM -SN OVC015=



000
FTUS43 KGRR 141732
TAFLAN
TAF
KLAN 141732Z 1418/1518 14010G16KT P6SM BKN250
     FM150300 14010KT 4SM -SN OVC045
     FM150600 14010KT 4SM -SN OVC018
     FM151100 16007KT 5SM -SN OVC015=



000
FTUS43 KGRR 141140
TAFMKG
TAF
KMKG 141140Z 1412/1512 13009KT P6SM BKN035
     FM141800 14013KT P6SM SCT040 BKN120
     FM150000 13012KT 4SM -SN OVC025
     FM150400 14012KT 2SM -SN OVC015=



000
FTUS43 KGRR 141140
TAFGRR
TAF
KGRR 141140Z 1412/1512 13005KT P6SM SCT250
     FM141800 13012KT P6SM BKN120
     FM150200 13010KT 4SM -SN OVC025
     FM150600 13010KT 2SM -SN OVC015=



000
FTUS43 KGRR 141140
TAFAZO
TAF
KAZO 141140Z 1412/1512 14005KT P6SM BKN250
     FM141600 15010KT P6SM BKN120
     FM142300 15010KT 4SM -SN OVC025
     FM150300 16010KT 2SM -SN OVC015=



000
FTUS43 KGRR 141140
TAFLAN
TAF
KLAN 141140Z 1412/1512 14005KT P6SM SCT250
     FM141800 14010KT P6SM BKN120
     FM150300 13010KT 4SM -SN OVC025
     FM150700 13010KT 2SM -SN OVC015=



000
FTUS43 KGRR 141140
TAFMKG
TAF
KMKG 141140Z 1412/1512 13009KT P6SM BKN035
     FM141800 14013KT P6SM SCT040 BKN120
     FM150000 13012KT 4SM -SN OVC025
     FM150400 14012KT 2SM -SN OVC015=



000
FTUS43 KGRR 141140
TAFJXN
TAF
KJXN 141140Z 1412/1512 14005KT P6SM BKN250
     FM141600 15010KT P6SM BKN120
     FM150100 15010KT 4SM -SN OVC025
     FM150500 15010KT 2SM -SN OVC015=



000
FTUS43 KGRR 141140
TAFBTL
TAF
KBTL 141140Z 1412/1512 14005KT P6SM BKN250
     FM141600 15010KT P6SM BKN120
     FM150000 15010KT 4SM -SN OVC025
     FM150400 16010KT 2SM -SN OVC015=



000
FTUS43 KGRR 141140
TAFJXN
TAF
KJXN 141140Z 1412/1512 14005KT P6SM BKN250
     FM141600 15010KT P6SM BKN120
     FM150100 15010KT 4SM -SN OVC025
     FM150500 15010KT 2SM -SN OVC015=



000
FTUS43 KGRR 141140
TAFBTL
TAF
KBTL 141140Z 1412/1512 14005KT P6SM BKN250
     FM141600 15010KT P6SM BKN120
     FM150000 15010KT 4SM -SN OVC025
     FM150400 16010KT 2SM -SN OVC015=



000
FTUS43 KGRR 141140
TAFAZO
TAF
KAZO 141140Z 1412/1512 14005KT P6SM BKN250
     FM141600 15010KT P6SM BKN120
     FM142300 15010KT 4SM -SN OVC025
     FM150300 16010KT 2SM -SN OVC015=



000
FTUS43 KGRR 141140
TAFLAN
TAF
KLAN 141140Z 1412/1512 14005KT P6SM SCT250
     FM141800 14010KT P6SM BKN120
     FM150300 13010KT 4SM -SN OVC025
     FM150700 13010KT 2SM -SN OVC015=



000
FTUS43 KGRR 141140
TAFGRR
TAF
KGRR 141140Z 1412/1512 13005KT P6SM SCT250
     FM141800 13012KT P6SM BKN120
     FM150200 13010KT 4SM -SN OVC025
     FM150600 13010KT 2SM -SN OVC015=



000
FTUS43 KGRR 140520
TAFGRR
TAF
KGRR 140520Z 1406/1506 12004KT P6SM SCT040
     FM141500 14010KT P6SM SCT150
     FM150200 13012KT 1 1/2SM -SN OVC015=



000
FTUS43 KGRR 140520
TAFBTL
TAF
KBTL 140520Z 1406/1506 VRB03KT P6SM SCT035
     FM141500 14010KT P6SM SCT150
     FM150200 13012KT 1 1/2SM -SN OVC015=



000
FTUS43 KGRR 140520
TAFLAN
TAF
KLAN 140520Z 1406/1506 VRB03KT P6SM SCT040
     FM141500 14010KT P6SM SCT150
     FM150300 14012KT 1 1/2SM -SN OVC025=



000
FTUS43 KGRR 140520
TAFGRR
TAF
KGRR 140520Z 1406/1506 12004KT P6SM SCT040
     FM141500 14010KT P6SM SCT150
     FM150200 13012KT 1 1/2SM -SN OVC015=



000
FTUS43 KGRR 140520
TAFBTL
TAF
KBTL 140520Z 1406/1506 VRB03KT P6SM SCT035
     FM141500 14010KT P6SM SCT150
     FM150200 13012KT 1 1/2SM -SN OVC015=



000
FTUS43 KGRR 140520
TAFJXN
TAF
KJXN 140520Z 1406/1506 VRB03KT P6SM SCT040
     FM141500 14010KT P6SM SCT150
     FM150200 14010G16KT 1 1/2SM -SN OVC025=



000
FTUS43 KGRR 140520
TAFMKG
TAF
KMKG 140520Z 1406/1506 10004KT P6SM -SN BKN030
     FM140800 12004KT P6SM SCT040
     FM142000 14010KT P6SM OVC025
     FM150100 13012KT 1 1/2SM -SN OVC015=



000
FTUS43 KGRR 140520
TAFAZO
TAF
KAZO 140520Z 1406/1506 VRB03KT P6SM SCT035
     FM141500 14010KT P6SM SCT150
     FM150200 13012KT 1 1/2SM -SN OVC015=



000
FTUS43 KGRR 140520
TAFLAN
TAF
KLAN 140520Z 1406/1506 VRB03KT P6SM SCT040
     FM141500 14010KT P6SM SCT150
     FM150300 14012KT 1 1/2SM -SN OVC025=



000
FTUS43 KGRR 140520
TAFJXN
TAF
KJXN 140520Z 1406/1506 VRB03KT P6SM SCT040
     FM141500 14010KT P6SM SCT150
     FM150200 14010G16KT 1 1/2SM -SN OVC025=



000
FTUS43 KGRR 140520
TAFMKG
TAF
KMKG 140520Z 1406/1506 10004KT P6SM -SN BKN030
     FM140800 12004KT P6SM SCT040
     FM142000 14010KT P6SM OVC025
     FM150100 13012KT 1 1/2SM -SN OVC015=



000
FTUS43 KGRR 140520
TAFAZO
TAF
KAZO 140520Z 1406/1506 VRB03KT P6SM SCT035
     FM141500 14010KT P6SM SCT150
     FM150200 13012KT 1 1/2SM -SN OVC015=



000
FTUS43 KGRR 132340
TAFBTL
TAF
KBTL 132340Z 1400/1424 32008KT P6SM BKN035
     FM140600 12004KT P6SM SCT040
     FM141500 14010KT P6SM SCT150=



000
FTUS43 KGRR 132340
TAFLAN
TAF
KLAN 132340Z 1400/1424 32008KT P6SM BKN035
     FM140400 12004KT P6SM SCT040
     FM141500 14010KT P6SM SCT150=



000
FTUS43 KGRR 132340
TAFLAN
TAF
KLAN 132340Z 1400/1424 32008KT P6SM BKN035
     FM140400 12004KT P6SM SCT040
     FM141500 14010KT P6SM SCT150=



000
FTUS43 KGRR 132340
TAFAZO
TAF
KAZO 132340Z 1400/1424 32007KT 3SM -SN BKN035
     FM140200 31008KT P6SM BKN040
     FM140600 21003KT P6SM SCT040
     FM141500 14010KT P6SM SCT150=



000
FTUS43 KGRR 132340
TAFMKG
TAF
KMKG 132340Z 1400/1424 36005KT 4SM -SN BKN030
     FM140200 08005KT P6SM BKN030
     FM140600 12004KT P6SM SCT040
     FM142000 14010KT P6SM OVC025=



000
FTUS43 KGRR 132340
TAFJXN
TAF
KJXN 132340Z 1400/1424 32008KT P6SM BKN040
     FM140400 12004KT P6SM SCT040
     FM141500 14010KT P6SM SCT150=



000
FTUS43 KGRR 132340
TAFGRR
TAF
KGRR 132340Z 1400/1424 33008KT P6SM BKN035
     FM140600 12004KT P6SM SCT040
     FM141500 14010KT P6SM SCT150=



000
FTUS43 KGRR 132340
TAFAZO
TAF
KAZO 132340Z 1400/1424 32007KT 3SM -SN BKN035
     FM140200 31008KT P6SM BKN040
     FM140600 21003KT P6SM SCT040
     FM141500 14010KT P6SM SCT150=



000
FTUS43 KGRR 132340
TAFMKG
TAF
KMKG 132340Z 1400/1424 36005KT 4SM -SN BKN030
     FM140200 08005KT P6SM BKN030
     FM140600 12004KT P6SM SCT040
     FM142000 14010KT P6SM OVC025=



000
FTUS43 KGRR 132340
TAFGRR
TAF
KGRR 132340Z 1400/1424 33008KT P6SM BKN035
     FM140600 12004KT P6SM SCT040
     FM141500 14010KT P6SM SCT150=



000
FTUS43 KGRR 132340
TAFJXN
TAF
KJXN 132340Z 1400/1424 32008KT P6SM BKN040
     FM140400 12004KT P6SM SCT040
     FM141500 14010KT P6SM SCT150=



000
FTUS43 KGRR 132340
TAFBTL
TAF
KBTL 132340Z 1400/1424 32008KT P6SM BKN035
     FM140600 12004KT P6SM SCT040
     FM141500 14010KT P6SM SCT150=



000
FTUS43 KGRR 132240 AAA
TAFAZO
TAF AMD
KAZO 132240Z 1323/1418 32010KT 2SM -SN BKN035
      TEMPO 1323/1324 2SM -SN BKN025
     FM140100 31008KT P6SM BKN040
     FM140600 21003KT P6SM SKC=



000
FTUS43 KGRR 131720
TAFMKG
TAF
KMKG 131720Z 1318/1418 32013G21KT 2SM -SN OVC020
      TEMPO 1318/1320 3/4SM -SN OVC015
     FM132200 31008KT P6SM -SN BKN040
     FM140600 14003KT P6SM SCT040
     FM141500 14010KT P6SM SCT150=



000
FTUS43 KGRR 131720
TAFAZO
TAF
KAZO 131720Z 1318/1418 31012G20KT 2SM -SN BKN020
      TEMPO 1318/1321 1SM -SN
     FM132200 31008KT P6SM BKN040
     FM140400 21003KT P6SM SKC
     FM141500 15009KT P6SM BKN150=



000
FTUS43 KGRR 131720
TAFGRR
TAF
KGRR 131720Z 1318/1418 32013G20KT P6SM -SN BKN025
     FM132100 31008KT P6SM BKN050
     FM140200 15003KT P6SM SKC
     FM141500 14010KT P6SM SCT150=



000
FTUS43 KGRR 131720
TAFBTL
TAF
KBTL 131720Z 1318/1418 32013G21KT P6SM -SN BKN035
     FM132200 31008KT P6SM SCT040
     FM140100 21003KT P6SM SKC
     FM141500 15009KT P6SM BKN150=



000
FTUS43 KGRR 131720
TAFLAN
TAF
KLAN 131720Z 1318/1418 32012G22KT P6SM -SN BKN035
     FM132200 31008KT P6SM SCT040
     FM140000 VRB03KT P6SM SKC
     FM141500 14009KT P6SM SCT150=



000
FTUS43 KGRR 131720
TAFJXN
TAF
KJXN 131720Z 1318/1418 32012G22KT P6SM BKN035
     FM132200 31008KT P6SM SCT040
     FM140000 VRB03KT P6SM SKC
     FM141500 14008KT P6SM BKN150=



000
FTUS43 KGRR 131553 AAA
TAFAZO
TAF AMD
KAZO 131553Z 1316/1412 31012G20KT 2SM -SN BKN020
      TEMPO 1316/1320 1SM -SN
     FM132200 31008KT P6SM BKN040
     FM140600 21003KT P6SM SKC=



000
FTUS43 KGRR 131553 AAA
TAFMKG
TAF AMD
KMKG 131553Z 1316/1412 32013G21KT 2SM -SN OVC020
      TEMPO 1316/1320 3/4SM -SN OVC015
     FM132100 31008KT P6SM -SN BKN040
     FM140600 14003KT P6SM SCT040=



000
FTUS43 KGRR 131508 AAA
TAFGRR
TAF AMD
KGRR 131508Z 1315/1412 32013G20KT P6SM -SN BKN025
     FM132100 31008KT P6SM BKN050
     FM140600 15003KT P6SM SKC=



000
FTUS43 KGRR 131139
TAFAZO
TAF
KAZO 131139Z 1312/1412 28008KT 5SM -SN BKN025
      TEMPO 1312/1315 2SM -SN BKN015
     FM131500 31012G20KT 3SM -SN BKN025
     FM132200 31008KT P6SM BKN040
     FM140600 21003KT P6SM SKC=



000
FTUS43 KGRR 131139
TAFBTL
TAF
KBTL 131139Z 1312/1412 28008KT P6SM BKN050
     FM131500 32013G21KT P6SM -SN BKN035
     FM132200 31008KT P6SM SCT040=



000
FTUS43 KGRR 131139
TAFMKG
TAF
KMKG 131139Z 1312/1412 34010KT 1 1/2SM -SN BKN015
      TEMPO 1312/1315 3/4SM -SN
     FM131500 32013G21KT 3SM -SN OVC025
     FM132100 31008KT P6SM -SN BKN040
     FM140600 14003KT P6SM SCT040=



000
FTUS43 KGRR 131139
TAFGRR
TAF
KGRR 131139Z 1312/1412 31011KT P6SM -SN BKN040
     FM131500 32013G20KT 5SM -SN BKN025
     FM132100 31008KT P6SM BKN050
     FM140600 15003KT P6SM SKC=



000
FTUS43 KGRR 131139
TAFJXN
TAF
KJXN 131139Z 1312/1412 28008KT P6SM SCT040
     FM131500 32012G22KT P6SM -SN BKN035
     FM132200 31008KT P6SM SCT040=



000
FTUS43 KGRR 131139
TAFLAN
TAF
KLAN 131139Z 1312/1412 28008KT P6SM SCT040
     FM131500 32012G22KT P6SM -SN BKN035
     FM132200 31008KT P6SM SCT040=



000
FTUS43 KGRR 131139
TAFBTL
TAF
KBTL 131139Z 1312/1412 28008KT P6SM BKN050
     FM131500 32013G21KT P6SM -SN BKN035
     FM132200 31008KT P6SM SCT040=



000
FTUS43 KGRR 131139
TAFAZO
TAF
KAZO 131139Z 1312/1412 28008KT 5SM -SN BKN025
      TEMPO 1312/1315 2SM -SN BKN015
     FM131500 31012G20KT 3SM -SN BKN025
     FM132200 31008KT P6SM BKN040
     FM140600 21003KT P6SM SKC=



000
FTUS43 KGRR 131139
TAFLAN
TAF
KLAN 131139Z 1312/1412 28008KT P6SM SCT040
     FM131500 32012G22KT P6SM -SN BKN035
     FM132200 31008KT P6SM SCT040=



000
FTUS43 KGRR 131139
TAFMKG
TAF
KMKG 131139Z 1312/1412 34010KT 1 1/2SM -SN BKN015
      TEMPO 1312/1315 3/4SM -SN
     FM131500 32013G21KT 3SM -SN OVC025
     FM132100 31008KT P6SM -SN BKN040
     FM140600 14003KT P6SM SCT040=



000
FTUS43 KGRR 131139
TAFJXN
TAF
KJXN 131139Z 1312/1412 28008KT P6SM SCT040
     FM131500 32012G22KT P6SM -SN BKN035
     FM132200 31008KT P6SM SCT040=



000
FTUS43 KGRR 131139
TAFGRR
TAF
KGRR 131139Z 1312/1412 31011KT P6SM -SN BKN040
     FM131500 32013G20KT 5SM -SN BKN025
     FM132100 31008KT P6SM BKN050
     FM140600 15003KT P6SM SKC=



000
FTUS43 KGRR 130643 AAA
TAFMKG
TAF AMD
KMKG 130643Z 1307/1406 34011KT 6SM -SN BKN040
      TEMPO 1308/1312 3SM -SN BKN025
     FM131500 32015G25KT 3SM -SN OVC025
     FM132000 31008KT P6SM SCT040=



000
FTUS43 KGRR 130643 AAA
TAFMKG
TAF AMD
KMKG 130643Z 1307/1406 34011KT 6SM -SN BKN040
      TEMPO 1308/1312 3SM -SN BKN025
     FM131500 32015G25KT 3SM -SN OVC025
     FM132000 31008KT P6SM SCT040=



000
FTUS43 KGRR 130520
TAFJXN
TAF
KJXN 130520Z 1306/1406 32012KT P6SM SCT040
     FM131500 32012G22KT P6SM SCT040
     FM132000 31008KT P6SM SCT040=



000
FTUS43 KGRR 130520
TAFGRR
TAF
KGRR 130520Z 1306/1406 33012KT P6SM BKN035
     FM131500 32012G18KT P6SM BKN035
     FM132000 31008KT P6SM SCT040=



000
FTUS43 KGRR 130520
TAFLAN
TAF
KLAN 130520Z 1306/1406 32012KT P6SM SCT040
     FM131500 32012G22KT P6SM SCT040
     FM132000 31008KT P6SM SCT040=



000
FTUS43 KGRR 130520
TAFMKG
TAF
KMKG 130520Z 1306/1406 34012G21KT 2SM -SN OVC015
     FM131500 32015G25KT 3SM -SN OVC025
     FM132000 31008KT P6SM SCT040=



000
FTUS43 KGRR 130520
TAFAZO
TAF
KAZO 130520Z 1306/1406 33012KT P6SM -SN BKN035
     FM131500 32012G18KT P6SM BKN035
     FM132000 31008KT P6SM SCT040=



000
FTUS43 KGRR 130520
TAFBTL
TAF
KBTL 130520Z 1306/1406 32012KT P6SM -SN BKN035
     FM131500 32013G23KT P6SM BKN035
     FM132000 31008KT P6SM SCT040=



000
FTUS43 KGRR 130520
TAFJXN
TAF
KJXN 130520Z 1306/1406 32012KT P6SM SCT040
     FM131500 32012G22KT P6SM SCT040
     FM132000 31008KT P6SM SCT040=



000
FTUS43 KGRR 130345 AAA
TAFAZO
TAF AMD
KAZO 130345Z 1304/1324 34014KT 6SM -SN OVC035
      TEMPO 1304/1307 3SM -SHSN BKN018
     FM131500 32013G23KT 5SM -SN BKN035
     FM132000 31008KT P6SM SCT040=



000
FTUS43 KGRR 130345 AAA
TAFAZO
TAF AMD
KAZO 130345Z 1304/1324 34014KT 6SM -SN OVC035
      TEMPO 1304/1307 3SM -SHSN BKN018
     FM131500 32013G23KT 5SM -SN BKN035
     FM132000 31008KT P6SM SCT040=



000
FTUS43 KGRR 130150 AAA
TAFJXN
TAF AMD
KJXN 130150Z 1302/1324 31014G24KT 6SM -SN BKN035
      TEMPO 1302/1304 2SM -SN BKN018
     FM130500 32010KT 6SM -SN OVC035
     FM131500 32012G22KT P6SM BKN040
     FM132000 31008KT P6SM SCT040=



000
FTUS43 KGRR 122340
TAFLAN
TAF
KLAN 122340Z 1300/1324 31012G23KT 6SM -SN OVC035
      TEMPO 1300/1301 3SM -SN BKN025
     FM130500 32010KT 6SM -SN OVC035
     FM131500 32012G22KT P6SM BKN040
     FM132000 31008KT P6SM SCT040=



000
FTUS43 KGRR 122340
TAFGRR
TAF
KGRR 122340Z 1300/1324 31017G25KT 3SM -SN BLSN OVC035
      TEMPO 1300/1304 2SM -SN OVC025
     FM130500 32012KT 6SM -SN OVC035
     FM131500 32013G23KT P6SM -SN BKN035
     FM132000 31008KT P6SM SCT040=



000
FTUS43 KGRR 122340
TAFJXN
TAF
KJXN 122340Z 1300/1324 31014G24KT P6SM -SN BKN035
      TEMPO 1300/1301 3SM -SN BKN020
     FM130500 32010KT 6SM -SN OVC035
     FM131500 32012G22KT P6SM BKN040
     FM132000 31008KT P6SM SCT040=



000
FTUS43 KGRR 122340
TAFAZO
TAF
KAZO 122340Z 1300/1324 31017G25KT 2SM -SN BLSN BKN025
      TEMPO 1300/1301 3/4SM -SN BLSN VV010
     FM130500 32010KT 6SM -SN OVC035
     FM131500 32013G23KT 5SM -SN BKN035
     FM132000 31008KT P6SM SCT040=



000
FTUS43 KGRR 122340
TAFMKG
TAF
KMKG 122340Z 1300/1324 33018G30KT 2SM -SN BLSN OVC025
      TEMPO 1300/1303 1SM -SN BKN018
     FM130500 32015G24KT 2SM -SN OVC025
     FM131500 32015G25KT 3SM -SN OVC025
     FM132000 31008KT P6SM SCT040=



000
FTUS43 KGRR 122340
TAFBTL
TAF
KBTL 122340Z 1300/1324 31017G25KT 5SM -SN BKN025
      TEMPO 1300/1301 2SM -SN VV012
     FM130500 32010KT 6SM -SN OVC035
     FM131500 32013G23KT P6SM BKN035
     FM132000 31008KT P6SM SCT040=



000
FTUS43 KGRR 122340
TAFLAN
TAF
KLAN 122340Z 1300/1324 31012G23KT 6SM -SN OVC035
      TEMPO 1300/1301 3SM -SN BKN025
     FM130500 32010KT 6SM -SN OVC035
     FM131500 32012G22KT P6SM BKN040
     FM132000 31008KT P6SM SCT040=



000
FTUS43 KGRR 122340
TAFJXN
TAF
KJXN 122340Z 1300/1324 31014G24KT P6SM -SN BKN035
      TEMPO 1300/1301 3SM -SN BKN020
     FM130500 32010KT 6SM -SN OVC035
     FM131500 32012G22KT P6SM BKN040
     FM132000 31008KT P6SM SCT040=



000
FTUS43 KGRR 122340
TAFAZO
TAF
KAZO 122340Z 1300/1324 31017G25KT 2SM -SN BLSN BKN025
      TEMPO 1300/1301 3/4SM -SN BLSN VV010
     FM130500 32010KT 6SM -SN OVC035
     FM131500 32013G23KT 5SM -SN BKN035
     FM132000 31008KT P6SM SCT040=



000
FTUS43 KGRR 122340
TAFGRR
TAF
KGRR 122340Z 1300/1324 31017G25KT 3SM -SN BLSN OVC035
      TEMPO 1300/1304 2SM -SN OVC025
     FM130500 32012KT 6SM -SN OVC035
     FM131500 32013G23KT P6SM -SN BKN035
     FM132000 31008KT P6SM SCT040=



000
FTUS43 KGRR 122340
TAFBTL
TAF
KBTL 122340Z 1300/1324 31017G25KT 5SM -SN BKN025
      TEMPO 1300/1301 2SM -SN VV012
     FM130500 32010KT 6SM -SN OVC035
     FM131500 32013G23KT P6SM BKN035
     FM132000 31008KT P6SM SCT040=



000
FTUS43 KGRR 122340
TAFMKG
TAF
KMKG 122340Z 1300/1324 33018G30KT 2SM -SN BLSN OVC025
      TEMPO 1300/1303 1SM -SN BKN018
     FM130500 32015G24KT 2SM -SN OVC025
     FM131500 32015G25KT 3SM -SN OVC025
     FM132000 31008KT P6SM SCT040=



000
FTUS43 KGRR 121738 AAA
TAFAZO
TAF AMD
KAZO 121738Z 1218/1318 30015G25KT 3SM -SN BLSN OVC025
      TEMPO 1218/1222 1/2SM SN BLSN OVC013
     FM122200 31015G25KT 2SM -SN BLSN OVC035
      TEMPO 1223/1301 1/4SM +SN BLSN VV007
     FM130500 32010KT 6SM -SN OVC035
     FM131500 32013G23KT 5SM -SN BKN035=



000
FTUS43 KGRR 121730
TAFLAN
TAF
KLAN 121730Z 1218/1318 29015G25KT 4SM -SN BLSN OVC025
      TEMPO 1218/1222 1SM -SN BLSN OVC015
     FM122200 31015G25KT 5SM -SN OVC035
      TEMPO 1222/1224 1/4SM +SN BLSN VV007
     FM130500 32010KT 6SM -SN OVC035
     FM131500 32012G22KT P6SM BKN040=



000
FTUS43 KGRR 121730
TAFAZO
TAF
KAZO 121730Z 1218/1318 30015G25KT 3SM -SN BLSN OVC025
      TEMPO 1218/1222 3/4SM -SN BLSN OVC015
     FM122200 31015G25KT 2SM -SN BLSN OVC035
      TEMPO 1223/1301 1/4SM +SN BLSN VV007
     FM130500 32010KT 6SM -SN OVC035
     FM131500 32013G23KT 5SM -SN BKN035=



000
FTUS43 KGRR 121730
TAFMKG
TAF
KMKG 121730Z 1218/1318 31018G28KT 4SM -SN BLSN OVC025
      TEMPO 1218/1222 3/4SM -SN BLSN OVC015
     FM122200 33018G30KT 2SM -SN BLSN OVC025
      TEMPO 1222/1223 1/4SM +SN BLSN VV007
     FM130500 32015G24KT 2SM -SN OVC025
     FM131500 32015G25KT 3SM -SN OVC025=



000
FTUS43 KGRR 121730
TAFGRR
TAF
KGRR 121730Z 1218/1318 30015G25KT 3SM -SN BLSN OVC025
      TEMPO 1218/1222 3/4SM -SN BLSN OVC015
     FM122200 31015G25KT 3SM -SN BLSN OVC035
      TEMPO 1222/1224 1/4SM +SN BLSN VV007
     FM130500 32012KT 6SM -SN OVC035
     FM131500 32013G23KT P6SM -SN BKN035=



000
FTUS43 KGRR 121730
TAFBTL
TAF
KBTL 121730Z 1218/1318 29015G25KT 3SM -SN BLSN OVC025
      TEMPO 1218/1222 3/4SM -SN BLSN OVC015
     FM122200 31015G25KT 3SM -SN BLSN OVC035
      TEMPO 1223/1301 1/4SM +SN BLSN VV007
     FM130500 32010KT 6SM -SN OVC035
     FM131500 32013G23KT P6SM BKN035=



000
FTUS43 KGRR 121730
TAFGRR
TAF
KGRR 121730Z 1218/1318 30015G25KT 3SM -SN BLSN OVC025
      TEMPO 1218/1222 3/4SM -SN BLSN OVC015
     FM122200 31015G25KT 3SM -SN BLSN OVC035
      TEMPO 1222/1224 1/4SM +SN BLSN VV007
     FM130500 32012KT 6SM -SN OVC035
     FM131500 32013G23KT P6SM -SN BKN035=



000
FTUS43 KGRR 121730
TAFLAN
TAF
KLAN 121730Z 1218/1318 29015G25KT 4SM -SN BLSN OVC025
      TEMPO 1218/1222 1SM -SN BLSN OVC015
     FM122200 31015G25KT 5SM -SN OVC035
      TEMPO 1222/1224 1/4SM +SN BLSN VV007
     FM130500 32010KT 6SM -SN OVC035
     FM131500 32012G22KT P6SM BKN040=



000
FTUS43 KGRR 121730
TAFMKG
TAF
KMKG 121730Z 1218/1318 31018G28KT 4SM -SN BLSN OVC025
      TEMPO 1218/1222 3/4SM -SN BLSN OVC015
     FM122200 33018G30KT 2SM -SN BLSN OVC025
      TEMPO 1222/1223 1/4SM +SN BLSN VV007
     FM130500 32015G24KT 2SM -SN OVC025
     FM131500 32015G25KT 3SM -SN OVC025=



000
FTUS43 KGRR 121730
TAFJXN
TAF
KJXN 121730Z 1218/1318 29014G24KT 4SM -SN BLSN OVC025
      TEMPO 1218/1222 1SM -SN BLSN OVC015
     FM122200 31014G24KT 5SM -SN OVC035
      TEMPO 1223/1301 1/4SM +SN BLSN VV007
     FM130500 32010KT 6SM -SN OVC035
     FM131500 32012G22KT P6SM BKN040=



000
FTUS43 KGRR 121730
TAFJXN
TAF
KJXN 121730Z 1218/1318 29014G24KT 4SM -SN BLSN OVC025
      TEMPO 1218/1222 1SM -SN BLSN OVC015
     FM122200 31014G24KT 5SM -SN OVC035
      TEMPO 1223/1301 1/4SM +SN BLSN VV007
     FM130500 32010KT 6SM -SN OVC035
     FM131500 32012G22KT P6SM BKN040=



000
FTUS43 KGRR 121730
TAFBTL
TAF
KBTL 121730Z 1218/1318 29015G25KT 3SM -SN BLSN OVC025
      TEMPO 1218/1222 3/4SM -SN BLSN OVC015
     FM122200 31015G25KT 3SM -SN BLSN OVC035
      TEMPO 1223/1301 1/4SM +SN BLSN VV007
     FM130500 32010KT 6SM -SN OVC035
     FM131500 32013G23KT P6SM BKN035=



000
FTUS43 KGRR 121730
TAFAZO
TAF
KAZO 121730Z 1218/1318 30015G25KT 3SM -SN BLSN OVC025
      TEMPO 1218/1222 3/4SM -SN BLSN OVC015
     FM122200 31015G25KT 2SM -SN BLSN OVC035
      TEMPO 1223/1301 1/4SM +SN BLSN VV007
     FM130500 32010KT 6SM -SN OVC035
     FM131500 32013G23KT 5SM -SN BKN035=



000
FTUS43 KGRR 121525 AAA
TAFBTL
TAF AMD
KBTL 121525Z 1215/1312 28012G20KT 1 1/2SM -SN OVC025
      TEMPO 1215/1218 3/4SM -SN OVC015
     FM121800 29015G25KT 5SM -SN BLSN OVC030
     FM122200 31015G25KT 5SM -SN BLSN OVC035
     FM130500 32010KT 6SM -SN OVC035=



000
FTUS43 KGRR 121525 AAA
TAFBTL
TAF AMD
KBTL 121525Z 1215/1312 28012G20KT 1 1/2SM -SN OVC025
      TEMPO 1215/1218 3/4SM -SN OVC015
     FM121800 29015G25KT 5SM -SN BLSN OVC030
     FM122200 31015G25KT 5SM -SN BLSN OVC035
     FM130500 32010KT 6SM -SN OVC035=



000
FTUS43 KGRR 121414 AAA
TAFLAN
TAF AMD
KLAN 121414Z 1214/1312 25011KT 1 1/2SM -SN BR OVC025
      TEMPO 1214/1218 3/4SM -SN OVC015
     FM121900 29015G25KT 5SM -SN BLSN OVC035
     FM122200 31015G25KT 6SM -SN OVC035
     FM130500 32010KT 6SM -SN OVC035=



000
FTUS43 KGRR 121413 AAA
TAFAZO
TAF AMD
KAZO 121413Z 1214/1312 24011KT 1SM -SN BR OVC025
      TEMPO 1214/1218 1/2SM SN OVC015
     FM121800 30015G25KT 5SM -SN BLSN OVC030
     FM122200 31015G25KT 5SM -SN BLSN OVC035
     FM130500 32010KT 6SM -SN OVC035=



000
FTUS43 KGRR 121412 AAA
TAFGRR
TAF AMD
KGRR 121412Z 1214/1312 24012KT 1SM -SN BR OVC025
      TEMPO 1214/1218 1/2SM SN OVC015
     FM121800 30015G25KT 5SM -SN BLSN OVC030
     FM122200 31015G25KT 5SM -SN BLSN OVC035
     FM130500 32012KT 6SM -SN OVC035=



000
FTUS43 KGRR 121153
TAFAZO
TAF
KAZO 121153Z 1212/1312 23010KT 6SM -SN OVC050
     FM121400 24011KT 4SM -SN BR OVC035
     FM121600 28012G20KT 3SM -SN OVC025
     FM121800 30015G25KT 5SM -SN BLSN OVC030
     FM122200 31015G25KT 5SM -SN BLSN OVC035
     FM130500 32010KT 6SM -SN OVC035=



000
FTUS43 KGRR 121153
TAFBTL
TAF
KBTL 121153Z 1212/1312 23010KT P6SM OVC050
     FM121430 25011KT 4SM -SN BR OVC035
     FM121600 28012G20KT 3SM -SN OVC025
     FM121800 29015G25KT 5SM -SN BLSN OVC030
     FM122200 31015G25KT 5SM -SN BLSN OVC035
     FM130500 32010KT 6SM -SN OVC035=



000
FTUS43 KGRR 121153
TAFJXN
TAF
KJXN 121153Z 1212/1312 24010KT P6SM OVC050
     FM121430 25011KT 5SM -SN BR OVC035
     FM121600 28012G20KT 5SM -SN OVC025
     FM121900 29014G24KT 5SM -SN BLSN OVC035
     FM122200 31014G24KT 6SM -SN OVC035
     FM130500 32010KT 6SM -SN OVC035=



000
FTUS43 KGRR 121153
TAFGRR
TAF
KGRR 121153Z 1212/1312 23010KT 6SM -SN OVC050
     FM121300 24012KT 4SM -SN BR OVC035
     FM121500 27012G20KT 3SM -SN OVC025
     FM121800 30015G25KT 5SM -SN BLSN OVC030
     FM122200 31015G25KT 5SM -SN BLSN OVC035
     FM130500 32012KT 6SM -SN OVC035=



000
FTUS43 KGRR 121153
TAFLAN
TAF
KLAN 121153Z 1212/1312 23010KT P6SM -SN OVC050
     FM121430 25011KT 4SM -SN BR OVC035
     FM121600 28012G20KT 3SM -SN OVC025
     FM121900 29015G25KT 5SM -SN BLSN OVC035
     FM122200 31015G25KT 6SM -SN OVC035
     FM130500 32010KT 6SM -SN OVC035=



000
FTUS43 KGRR 121153
TAFMKG
TAF
KMKG 121153Z 1212/1312 28014G23KT 6SM -SN OVC050
     FM121300 29015G24KT 4SM -SN BR OVC030
     FM121500 30015G25KT 3SM -SN BLSN OVC025
     FM121800 31018G28KT 5SM -SN BLSN OVC035
     FM122200 33018G30KT 3SM -SN BLSN OVC035
     FM130500 32015G24KT 6SM -SN OVC035=



000
FTUS43 KGRR 121153
TAFMKG
TAF
KMKG 121153Z 1212/1312 28014G23KT 6SM -SN OVC050
     FM121300 29015G24KT 4SM -SN BR OVC030
     FM121500 30015G25KT 3SM -SN BLSN OVC025
     FM121800 31018G28KT 5SM -SN BLSN OVC035
     FM122200 33018G30KT 3SM -SN BLSN OVC035
     FM130500 32015G24KT 6SM -SN OVC035=



000
FTUS43 KGRR 121153
TAFBTL
TAF
KBTL 121153Z 1212/1312 23010KT P6SM OVC050
     FM121430 25011KT 4SM -SN BR OVC035
     FM121600 28012G20KT 3SM -SN OVC025
     FM121800 29015G25KT 5SM -SN BLSN OVC030
     FM122200 31015G25KT 5SM -SN BLSN OVC035
     FM130500 32010KT 6SM -SN OVC035=



000
FTUS43 KGRR 121153
TAFAZO
TAF
KAZO 121153Z 1212/1312 23010KT 6SM -SN OVC050
     FM121400 24011KT 4SM -SN BR OVC035
     FM121600 28012G20KT 3SM -SN OVC025
     FM121800 30015G25KT 5SM -SN BLSN OVC030
     FM122200 31015G25KT 5SM -SN BLSN OVC035
     FM130500 32010KT 6SM -SN OVC035=



000
FTUS43 KGRR 121153
TAFJXN
TAF
KJXN 121153Z 1212/1312 24010KT P6SM OVC050
     FM121430 25011KT 5SM -SN BR OVC035
     FM121600 28012G20KT 5SM -SN OVC025
     FM121900 29014G24KT 5SM -SN BLSN OVC035
     FM122200 31014G24KT 6SM -SN OVC035
     FM130500 32010KT 6SM -SN OVC035=



000
FTUS43 KGRR 121153
TAFLAN
TAF
KLAN 121153Z 1212/1312 23010KT P6SM -SN OVC050
     FM121430 25011KT 4SM -SN BR OVC035
     FM121600 28012G20KT 3SM -SN OVC025
     FM121900 29015G25KT 5SM -SN BLSN OVC035
     FM122200 31015G25KT 6SM -SN OVC035
     FM130500 32010KT 6SM -SN OVC035=



000
FTUS43 KGRR 121153
TAFGRR
TAF
KGRR 121153Z 1212/1312 23010KT 6SM -SN OVC050
     FM121300 24012KT 4SM -SN BR OVC035
     FM121500 27012G20KT 3SM -SN OVC025
     FM121800 30015G25KT 5SM -SN BLSN OVC030
     FM122200 31015G25KT 5SM -SN BLSN OVC035
     FM130500 32012KT 6SM -SN OVC035=



000
FTUS43 KGRR 120520
TAFMKG
TAF
KMKG 120520Z 1206/1306 26008KT P6SM BKN035
     FM121100 28010KT 4SM -SHSN BR OVC030
     FM121400 29012G22KT 2SM -SHSN BLSN OVC025
     FM121900 32014G25KT 2SM -SHSN BLSN OVC030=



000
FTUS43 KGRR 120520
TAFAZO
TAF
KAZO 120520Z 1206/1306 23007KT P6SM SCT035 BKN080
     FM121300 24009KT 3SM -SHSN BR OVC030
     FM121500 27010KT 3SM -SHSN BR OVC025
     FM121700 29014G24KT 3SM -SHSN BLSN OVC025
     FM130200 34012G20KT P6SM VCSH OVC035=



000
FTUS43 KGRR 120520
TAFLAN
TAF
KLAN 120520Z 1206/1306 23007KT P6SM SCT035
     FM121400 26012G21KT 4SM -SHSN BLSN OVC030
     FM122100 30015G25KT 4SM -SHSN BLSN OVC035
     FM130000 32013G22KT P6SM BKN040=



000
FTUS43 KGRR 120520
TAFGRR
TAF
KGRR 120520Z 1206/1306 23007KT P6SM SCT035
     FM121200 26009KT 3SM -SHSN BR OVC030
     FM121400 27011KT 3SM -SHSN BR OVC025
     FM121600 29014G24KT 3SM -SHSN BLSN OVC025
     FM122200 32015G25KT P6SM BKN040=



000
FTUS43 KGRR 120520
TAFBTL
TAF
KBTL 120520Z 1206/1306 23007KT P6SM SCT035 BKN080
     FM121300 24009KT 5SM -SHSN OVC030
     FM121500 27011KT 4SM -SHSN BR OVC025
     FM121700 29014G24KT 4SM -SHSN BLSN OVC025
     FM130000 33013G22KT P6SM VCSH OVC035=



000
FTUS43 KGRR 120520
TAFMKG
TAF
KMKG 120520Z 1206/1306 26008KT P6SM BKN035
     FM121100 28010KT 4SM -SHSN BR OVC030
     FM121400 29012G22KT 2SM -SHSN BLSN OVC025
     FM121900 32014G25KT 2SM -SHSN BLSN OVC030=



000
FTUS43 KGRR 120520
TAFLAN
TAF
KLAN 120520Z 1206/1306 23007KT P6SM SCT035
     FM121400 26012G21KT 4SM -SHSN BLSN OVC030
     FM122100 30015G25KT 4SM -SHSN BLSN OVC035
     FM130000 32013G22KT P6SM BKN040=



000
FTUS43 KGRR 120520
TAFBTL
TAF
KBTL 120520Z 1206/1306 23007KT P6SM SCT035 BKN080
     FM121300 24009KT 5SM -SHSN OVC030
     FM121500 27011KT 4SM -SHSN BR OVC025
     FM121700 29014G24KT 4SM -SHSN BLSN OVC025
     FM130000 33013G22KT P6SM VCSH OVC035=



000
FTUS43 KGRR 120520
TAFJXN
TAF
KJXN 120520Z 1206/1306 24007KT P6SM SCT035
     FM121500 27012G20KT 4SM -SHSN BLSN OVC030
     FM122100 30014G23KT 4SM -SHSN BLSN OVC035
     FM130000 32012G20KT P6SM BKN040=



000
FTUS43 KGRR 120520
TAFAZO
TAF
KAZO 120520Z 1206/1306 23007KT P6SM SCT035 BKN080
     FM121300 24009KT 3SM -SHSN BR OVC030
     FM121500 27010KT 3SM -SHSN BR OVC025
     FM121700 29014G24KT 3SM -SHSN BLSN OVC025
     FM130200 34012G20KT P6SM VCSH OVC035=



000
FTUS43 KGRR 120330 AAA
TAFMKG
TAF AMD
KMKG 120330Z 1203/1224 26008KT P6SM BKN035
     FM121100 28010KT 4SM -SHSN BR OVC030
     FM121400 29012G22KT 2SM -SHSN BLSN OVC025
     FM121900 32014G25KT 2SM -SHSN BLSN OVC030=



000
FTUS43 KGRR 120330 AAA
TAFMKG
TAF AMD
KMKG 120330Z 1203/1224 26008KT P6SM BKN035
     FM121100 28010KT 4SM -SHSN BR OVC030
     FM121400 29012G22KT 2SM -SHSN BLSN OVC025
     FM121900 32014G25KT 2SM -SHSN BLSN OVC030=



000
FTUS43 KGRR 112340
TAFJXN
TAF
KJXN 112340Z 1200/1224 23007KT P6SM BKN040
     FM121500 27010G19KT 4SM -SHSN BR OVC030=



000
FTUS43 KGRR 112340
TAFAZO
TAF
KAZO 112340Z 1200/1224 23006KT P6SM -SN BKN040
     FM121200 24009KT 4SM -SHSN BR OVC030
     FM121500 28012G22KT 3SM -SHSN BR OVC025=



000
FTUS43 KGRR 112340
TAFBTL
TAF
KBTL 112340Z 1200/1224 23007KT P6SM BKN040
     FM121300 26011G20KT 4SM -SHSN BR OVC030=



000
FTUS43 KGRR 112340
TAFMKG
TAF
KMKG 112340Z 1200/1224 25006KT P6SM -SN BKN030
     FM120100 26008KT P6SM -SN BKN035
     FM121100 29012G22KT 2SM -SHSN BR OVC025
     FM122000 33014G24KT 2SM -SHSN BR OVC025=



000
FTUS43 KGRR 112340
TAFGRR
TAF
KGRR 112340Z 1200/1224 24007KT P6SM -SN BKN040
     FM121100 25011G20KT 4SM -SHSN BR OVC030
     FM121400 28012G22KT 3SM -SHSN BR OVC025=



000
FTUS43 KGRR 112340
TAFLAN
TAF
KLAN 112340Z 1200/1224 23007KT P6SM BKN040
     FM121400 26010G20KT 4SM -SHSN BR OVC030=



000
FTUS43 KGRR 112340
TAFJXN
TAF
KJXN 112340Z 1200/1224 23007KT P6SM BKN040
     FM121500 27010G19KT 4SM -SHSN BR OVC030=



000
FTUS43 KGRR 112340
TAFAZO
TAF
KAZO 112340Z 1200/1224 23006KT P6SM -SN BKN040
     FM121200 24009KT 4SM -SHSN BR OVC030
     FM121500 28012G22KT 3SM -SHSN BR OVC025=



000
FTUS43 KGRR 112340
TAFBTL
TAF
KBTL 112340Z 1200/1224 23007KT P6SM BKN040
     FM121300 26011G20KT 4SM -SHSN BR OVC030=



000
FTUS43 KGRR 112340
TAFMKG
TAF
KMKG 112340Z 1200/1224 25006KT P6SM -SN BKN030
     FM120100 26008KT P6SM -SN BKN035
     FM121100 29012G22KT 2SM -SHSN BR OVC025
     FM122000 33014G24KT 2SM -SHSN BR OVC025=



000
FTUS43 KGRR 112340
TAFGRR
TAF
KGRR 112340Z 1200/1224 24007KT P6SM -SN BKN040
     FM121100 25011G20KT 4SM -SHSN BR OVC030
     FM121400 28012G22KT 3SM -SHSN BR OVC025=



000
FTUS43 KGRR 112340
TAFLAN
TAF
KLAN 112340Z 1200/1224 23007KT P6SM BKN040
     FM121400 26010G20KT 4SM -SHSN BR OVC030=



    US Dept of Commerce
    National Oceanic and Atmospheric Administration
    National Weather Service
    1325 East West Highway
    Silver Spring, MD 20910
    Page Author: NWS Internet Services Team
Disclaimer
Information Quality
Credits
Glossary
Privacy Policy
Freedom of Information Act (FOIA)
About Us
Career Opportunities